• Join FlightAware (Why Join?)
  • Login
  • US Flag 
08:46AM EDT


 

Airport Tracker/Info


-or-


 

Live Flight TrackerFlight Track Log ✈ UAL256 ✈ 10-May-2013 ✈ KSAN - KDEN

Flight Track Log - Related Links

Times and Time Zones

All times are in EDT time to prevent confusion due to time zone crossing. See the UAL256 flight status page for this flight to view local times or setup timezone preferences in your user account.

Time Position Orientation Groundspeed Altitude Reporting Facility
EDT Latitude Longitude Course Direction KTS MPH feet Rate Location/Type
06:49PM 32.7500 -117.2333 19° North 160 184 1,500  Level Southern California TRACON
06:50PM 32.7533 -117.3047 273° West 205 236 3,900 2,340 Climbing Los Angeles Center
06:51PM 32.6853 -117.2928 172° South 273 314 6,700 2,880 Climbing Los Angeles Center
06:52PM 32.6005 -116.9609 84° East  Level FlightAware Approximate
06:52PM 32.6450 -117.2219 124° Southeast 273 314 9,900  Level Los Angeles Center
06:53PM 32.6124 -116.8307 84° East  Level FlightAware Approximate
06:53PM 32.6300 -117.1039 99° East 304 350 12,100  Level Los Angeles Center
06:54PM 32.6699 -116.7454 19° North  Level FlightAware Approximate
06:54PM 32.6117 -116.9872 101° East 350 403 14,100  Level Los Angeles Center
06:55PM 32.6203 -116.8650 85° East 372 428 16,200 1,800 Climbing Los Angeles Center
06:56PM 32.6689 -116.7592 61° Northeast 382 440 18,300 1,980 Climbing Los Angeles Center
06:57PM 32.7928 -116.7075 19° North 391 450 20,700 1,980 Climbing Los Angeles Center
06:58PM 32.8925 -116.6411 29° Northeast 404 465 22,500 1,980 Climbing Los Angeles Center
06:59PM 33.0164 -116.5606 29° Northeast 415 478 24,800 1,800 Climbing Los Angeles Center
07:00PM 33.1200 -116.4931 29° Northeast 418 481 26,300 1,320 Climbing Los Angeles Center
07:02PM 33.2247 -116.4256 28° Northeast 422 486 27,600 1,140 Climbing Los Angeles Center
07:03PM 33.3303 -116.3556 29° Northeast 432 497 28,700 1,440 Climbing Los Angeles Center
07:04PM 33.4356 -116.2867 29° Northeast 431 496 30,600 1,680 Climbing Los Angeles Center
07:05PM 33.5383 -116.2197 28° Northeast 424 488 32,200 1,380 Climbing Los Angeles Center
07:06PM 33.6311 -116.1428 35° Northeast 409 471 33,500 1,260 Climbing Los Angeles Center
07:07PM 33.7250 -116.0192 48° Northeast 415 478 34,900 720 Climbing Los Angeles Center
07:08PM 33.7972 -115.9139 50° Northeast 412 474 35,000  Climbing Los Angeles Center
07:09PM 33.8703 -115.8081 50° Northeast 410 472 34,900 -60 Descending Los Angeles Center
07:10PM 33.9422 -115.6997 51° Northeast 413 475 34,900  Level Los Angeles Center
07:11PM 34.0161 -115.5919 50° Northeast 417 480 35,000 600 Climbing Los Angeles Center
07:12PM 34.1017 -115.4658 51° Northeast 406 467 36,400 900 Climbing Los Angeles Center
07:13PM 34.1864 -115.3422 50° Northeast 401 461 36,900 240 Climbing Los Angeles Center
07:14PM 34.2575 -115.2369 51° Northeast 404 465 36,900  Level Los Angeles Center
07:15PM 34.3306 -115.1278 51° Northeast 414 476 36,900  Level Los Angeles Center
07:16PM 34.4019 -115.0192 51° Northeast 413 475 36,900  Level Los Angeles Center
07:17PM 34.4742 -114.9117 51° Northeast 412 474 36,900  Level Los Angeles Center
07:18PM 34.5458 -114.8069 50° Northeast 405 466 36,900  Level Los Angeles Center
07:19PM 34.6328 -114.6767 51° Northeast 413 475 36,900  Level Los Angeles Center
07:20PM 34.7083 -114.5586 52° Northeast 418 481 37,000  Climbing Los Angeles Center
07:21PM 34.7783 -114.4447 53° Northeast 421 484 37,000  Level Los Angeles Center
07:22PM 34.8331 -114.3183 62° Northeast 423 487 37,000  Level Los Angeles Center
07:23PM 34.8886 -114.1950 61° Northeast 417 480 37,000  Level Los Angeles Center
07:24PM 34.9428 -114.0689 62° Northeast 419 482 37,000  Level Los Angeles Center
07:26PM 35.0006 -113.9383 62° Northeast 417 480 37,000  Level Los Angeles Center
07:27PM 35.0556 -113.8131 62° Northeast 421 484 37,000 180 Level Los Angeles Center
07:28PM 35.1114 -113.6850 62° Northeast 429 494 37,400 420 Climbing Los Angeles Center
07:29PM 35.1783 -113.5308 62° Northeast 430 495 37,900 600 Climbing Los Angeles Center
07:30PM 35.2350 -113.4003 62° Northeast 435 501 38,700 480 Climbing Los Angeles Center
07:31PM 35.2908 -113.3064 54° Northeast 428 493 39,000 120 Climbing Los Angeles Center
07:32PM 35.3853 -113.1514 53° Northeast 419 482 39,000  Level Los Angeles Center
07:33PM 35.4550 -113.0356 54° Northeast 421 484 39,000  Level Los Angeles Center
07:34PM 35.5306 -112.9117 53° Northeast 426 490 39,000  Level Los Angeles Center
07:35PM 35.5875 -112.8181 53° Northeast 427 491 39,000  Level Los Angeles Center
07:36PM 35.6719 -112.6778 53° Northeast 427 491 39,000  Level Los Angeles Center
07:37PM 35.7450 -112.5572 53° Northeast 426 490 39,000  Level Los Angeles Center
07:38PM 35.8150 -112.4392 54° Northeast 427 491 39,000  Level Los Angeles Center
07:39PM 35.8847 -112.3228 53° Northeast 425 489 39,000  Level Los Angeles Center
07:40PM 35.9542 -112.2047 54° Northeast 425 489 39,000  Level Los Angeles Center
07:41PM 36.0381 -112.0622 54° Northeast 431 496 39,000  Level Los Angeles Center
07:42PM 36.0942 -111.9669 54° Northeast 429 494 39,000  Level Los Angeles Center
07:43PM 36.1628 -111.8536 53° Northeast 431 496 39,000  Level Denver Center
07:44PM 36.2467 -111.7100 54° Northeast 430 495 39,000  Level Denver Center
07:45PM 36.3161 -111.5908 54° Northeast 430 495 39,000  Level Denver Center
07:46PM 36.3864 -111.4711 54° Northeast 430 495 39,000  Level Denver Center
07:47PM 36.4550 -111.3519 54° Northeast 428 493 39,000  Level Denver Center
07:48PM 36.5258 -111.2322 54° Northeast 430 495 39,000  Level Denver Center
07:49PM 36.5953 -111.1122 54° Northeast 430 495 39,000 -60 Level Denver Center
07:50PM 36.6778 -110.9692 54° Northeast 426 490 38,900  Descending Denver Center
07:51PM 36.7578 -110.8264 55° Northeast 423 487 39,000  Climbing Denver Center
07:52PM 36.8261 -110.7058 55° Northeast 427 491 39,000  Level Denver Center
07:53PM 36.8953 -110.5842 55° Northeast 431 496 39,000  Level Denver Center
07:54PM 36.9625 -110.4631 55° Northeast 428 493 39,000  Level Denver Center
07:56PM 37.0322 -110.3425 54° Northeast 429 494 39,000  Level Denver Center
07:57PM 37.1144 -110.1950 55° Northeast 430 495 39,000  Level Denver Center
07:58PM 37.1850 -110.0678 55° Northeast 433 498 39,000  Level Denver Center
07:59PM 37.2508 -109.9506 55° Northeast 429 494 39,000  Level Denver Center
08:00PM 37.3269 -109.8131 55° Northeast 429 494 39,000  Level Denver Center
08:01PM 37.3842 -109.6897 60° Northeast 428 493 39,000  Level Denver Center
08:02PM 37.4408 -109.5644 60° Northeast 429 494 39,000  Level Denver Center
08:03PM 37.5075 -109.4175 60° Northeast 432 497 39,000  Level Denver Center
08:04PM 37.5650 -109.2925 60° Northeast 431 496 39,000 -60 Level Denver Center
08:05PM 37.6303 -109.1461 61° Northeast 430 495 38,900  Descending Denver Center
08:06PM 37.6864 -109.0228 60° Northeast 425 489 39,000  Climbing Denver Center
08:07PM 37.7519 -108.8744 61° Northeast 431 496 39,000  Level Denver Center
08:08PM 37.8081 -108.7483 61° Northeast 431 496 39,000  Level Denver Center
08:09PM 37.8842 -108.5778 60° Northeast 435 501 39,000  Level Denver Center
08:10PM 37.9400 -108.4500 61° Northeast 435 501 39,000  Level Denver Center
08:11PM 38.0072 -108.3000 60° Northeast 438 504 39,000  Level Denver Center
08:12PM 38.0633 -108.1681 62° Northeast 441 507 39,000  Level Denver Center
08:13PM 38.1217 -108.0333 61° Northeast 433 498 39,000  Level Denver Center
08:14PM 38.1864 -107.8853 61° Northeast 431 496 39,000  Level Denver Center
08:15PM 38.2411 -107.7592 61° Northeast 429 494 39,000 -60 Level Denver Center
08:16PM 38.3039 -107.6122 61° Northeast 425 489 38,900 -480 Descending Denver Center
08:17PM 38.3581 -107.4847 62° Northeast 428 493 38,100 -960 Descending Denver Center
08:18PM 38.4228 -107.3319 62° Northeast 437 503 37,000 -1,020 Descending Denver Center
08:19PM 38.4764 -107.2067 61° Northeast 425 489 36,100 -840 Descending Denver Center
08:20PM 38.5169 -107.1081 62° Northeast 421 484 35,300 -1,020 Descending Denver Center
08:22PM 38.5836 -106.9531 61° Northeast 417 480 34,100 -1,140 Descending Denver Center
08:23PM 38.6494 -106.7947 62° Northeast 420 483 33,000 -1,080 Descending Denver Center
08:24PM 38.7056 -106.6617 62° Northeast 427 491 31,900 -1,020 Descending Denver Center
08:25PM 38.7597 -106.5314 62° Northeast 419 482 31,000 -960 Descending Denver Center
08:26PM 38.8131 -106.4014 62° Northeast 414 476 30,000 -1,020 Descending Denver Center
08:27PM 38.8653 -106.2744 62° Northeast 407 468 29,000 -1,020 Descending Denver Center
08:28PM 38.9281 -106.1222 62° Northeast 404 465 27,800 -1,080 Descending Denver Center
08:29PM 38.9883 -105.9731 62° Northeast 395 455 26,600 -1,080 Descending Denver Center
08:30PM 39.0392 -105.8492 62° Northeast 393 452 25,600 -1,320 Descending Denver Center
08:31PM 39.0881 -105.7286 62° Northeast 386 444 23,900 -2,280 Descending Denver Center
08:32PM 39.1350 -105.6125 62° Northeast 382 440 21,000 -2,580 Descending Denver Center
08:33PM 39.1900 -105.4731 63° Northeast 382 440 18,600 -1,800 Descending Denver Center
08:34PM 39.2339 -105.3658 62° Northeast 339 390 17,400 -840 Descending Denver Center
08:35PM 39.2911 -105.2919 45° Northeast 295 339 17,000 -540 Descending Denver Center
08:36PM 39.3517 -105.2208 42° Northeast 276 318 16,300 -840 Descending Denver Center
08:37PM 39.3211 -105.1253 112° Southeast 296 341 15,300 -1,080 Descending Denver Center
08:38PM 39.3208 -105.0272 90° East 255 293 14,100 -1,080 Descending Denver Center
08:39PM 39.3469 -104.9506 66° East 239 275 13,100 -540 Descending Denver Center
08:40PM 39.3856 -104.8864 52° Northeast 226 260 13,000 -660 Descending Denver Center
08:41PM 39.4383 -104.8256 42° Northeast 237 273 11,800 -1,260 Descending Denver Center
08:42PM 39.4944 -104.7814 31° Northeast 236 272 10,500 -1,140 Descending Denver Center
08:43PM 39.5522 -104.7356 31° Northeast 242 278 9,500 -960 Descending Denver Center
08:44PM 39.6150 -104.6883 30° Northeast 242 278 8,600 -480 Descending Denver Center
08:45PM 39.6664 -104.6636 20° North 201 231 8,600 -540 Level Denver Center
08:46PM 39.7225 -104.6619 North 188 216 7,500 -1,080 Descending Denver Center